Nord Copenhagen — 3FNV7 — position and weather

sailwx.info

Track history (hours):
 
Tides and Currents Weather Stations Pressure Air Temp Water Temp Dewpoint Dewpoint Depression Visibility Wind Speed Wind Dir Waves Ship Positions

Nord Copenhagen

Last reported at 2016-Sep-28 21:33 UTC. Time now 2016-Oct-01 13:51 UTC.
Position N 19°29' W 095°51'.

Length 177 m; draft 6.7 m.

Type: Cargo ship. MMSI: 373334000.

Date/timePositionNaut miles runAvg speedWind from/ knotsBaromVisibWave heightAir tempDewpointWater temp
2016-Sep-28 21:33N 19°29' W 095°51'10 4.6
2016-Sep-28 19:25N 19°22' W 095°58'2 0.8
2016-Sep-28 16:31N 19°24' W 095°58'1 0.8
2016-Sep-28 15:31N 19°25' W 095°58'1 0.5
2016-Sep-28 12:31N 19°26' W 095°60'2 0.4
2016-Sep-28 08:31N 19°27' W 096°01'8 1.6
2016-Sep-28 03:31N 19°21' W 096°06'1 1.3
2016-Sep-28 02:30N 19°22' W 096°05'1 1.3
2016-Sep-28 01:31N 19°23' W 096°05'2 1.0
2016-Sep-27 23:30N 19°25' W 096°04'4 1.0
2016-Sep-27 19:33N 19°26' W 096°00'15 3.1
2016-Sep-27 14:33N 19°13' W 096°08'0 0.0
2016-Sep-27 13:30N 19°13' W 096°08'0 0.0
2016-Sep-27 10:33N 19°13' W 096°08'0 0.0
2016-Sep-27 00:30N 19°13' W 096°08'0 0.0
2016-Sep-26 20:33N 19°13' W 096°08'0 0.0
2016-Sep-26 19:33N 19°13' W 096°08'0 0.0
2016-Sep-26 15:33N 19°13' W 096°08'0 0.0
2016-Sep-26 13:33N 19°13' W 096°08'0 0.0
2016-Sep-26 11:33N 19°13' W 096°08'0 0.0
2016-Sep-26 08:33N 19°13' W 096°08'0 0.0
2016-Sep-26 02:33N 19°13' W 096°08'0 0.0
2016-Sep-26 01:33N 19°13' W 096°08'0 0.0
2016-Sep-26 00:33N 19°13' W 096°08'0 0.0
2016-Sep-25 21:33N 19°13' W 096°08'0 0.0
2016-Sep-25 17:27N 19°13' W 096°08'0 0.0
2016-Sep-25 16:33N 19°13' W 096°08'0 0.0
2016-Sep-25 15:33N 19°13' W 096°08'0 0.0
2016-Sep-25 14:33N 19°13' W 096°08'0 0.0
2016-Sep-25 12:33N 19°13' W 096°08'0 0.0
2016-Sep-25 11:33N 19°13' W 096°08'0 0.0
2016-Sep-25 10:33N 19°13' W 096°08'0 0.0
2016-Sep-25 09:33N 19°13' W 096°08'0 0.0
2016-Sep-25 07:33N 19°13' W 096°08'0 0.0
2016-Sep-25 04:33N 19°13' W 096°08'0 0.0
2016-Sep-25 00:33N 19°13' W 096°08'0 0.0
2016-Sep-24 22:33N 19°13' W 096°08'0 0.0
2016-Sep-24 21:33N 19°13' W 096°08'0 0.0
2016-Sep-24 19:33N 19°13' W 096°08'0 0.0
2016-Sep-24 18:33N 19°13' W 096°08'0 0.0
2016-Sep-24 17:33N 19°13' W 096°08'0 0.0
2016-Sep-24 16:33N 19°13' W 096°08'0 0.0
2016-Sep-24 14:33N 19°13' W 096°08'0 0.0
2016-Sep-24 12:33N 19°13' W 096°08'0 0.0
2016-Sep-24 10:30N 19°13' W 096°08'0 0.0
2016-Sep-24 09:33N 19°13' W 096°08'0 0.0
2016-Sep-24 03:33N 19°13' W 096°08'0 0.0
2016-Sep-24 02:33N 19°13' W 096°08'0 0.0
2016-Sep-24 01:33N 19°13' W 096°08'0 0.0
2016-Sep-24 00:33N 19°13' W 096°08'0 0.0
2016-Sep-23 19:33N 19°13' W 096°08'0 0.0
2016-Sep-23 17:30N 19°13' W 096°08'0 0.0
2016-Sep-23 16:33N 19°13' W 096°08'0 0.0
2016-Sep-23 15:33N 19°13' W 096°08'0 0.0
2016-Sep-23 13:33N 19°13' W 096°08'0 0.0
2016-Sep-23 09:33N 19°13' W 096°08'0 0.0
2016-Sep-23 06:27N 19°13' W 096°08'0 0.0
2016-Sep-23 04:33N 19°13' W 096°08'0 0.0
2016-Sep-23 03:33N 19°13' W 096°08'0 0.0
2016-Sep-23 02:33N 19°13' W 096°08'0 0.0
2016-Sep-23 01:33N 19°13' W 096°08'0 0.0
2016-Sep-23 00:30N 19°13' W 096°08'0 0.0
2016-Sep-22 23:33N 19°13' W 096°08'0 0.0
2016-Sep-22 20:33N 19°13' W 096°08'0 0.0
2016-Sep-22 12:33N 19°13' W 096°08'0 0.0
2016-Sep-22 04:33N 19°13' W 096°08'0 0.0
2016-Sep-22 03:33N 19°13' W 096°08'0 0.0
2016-Sep-22 00:33N 19°13' W 096°08'0 0.0
2016-Sep-21 23:33N 19°13' W 096°08'0 0.0
2016-Sep-21 22:33N 19°13' W 096°08'0 0.0
2016-Sep-21 19:33N 19°13' W 096°08'0 0.0
2016-Sep-21 16:33N 19°13' W 096°08'0 0.0
2016-Sep-21 09:33N 19°13' W 096°08'0 0.0
2016-Sep-21 08:33N 19°13' W 096°08'0 0.0
2016-Sep-21 05:30N 19°13' W 096°08'0 0.0
2016-Sep-21 03:33N 19°13' W 096°08'0 0.0
2016-Sep-21 02:33N 19°13' W 096°08'19 2.1
2016-Sep-20 17:33N 19°14' W 095°49'  
Track history (hours):
 
Tides and Currents Weather Stations Pressure Air Temp Water Temp Dewpoint Dewpoint Depression Visibility Wind Speed Wind Dir Waves Ship Positions

Nord Copenhagen

Last reported at 2016-Sep-28 21:33 UTC. Time now 2016-Oct-01 13:51 UTC.
Position N 19°29' W 095°51'.

Length 177 m; draft 6.7 m.

Type: Cargo ship. MMSI: 373334000.

Date/timePositionNaut miles runAvg speedWind from/ knotsBaromVisibWave heightAir tempDewpointWater temp
2016-Sep-28 21:33N 19°29' W 095°51'10 4.6
2016-Sep-28 19:25N 19°22' W 095°58'2 0.8
2016-Sep-28 16:31N 19°24' W 095°58'1 0.8
2016-Sep-28 15:31N 19°25' W 095°58'1 0.5
2016-Sep-28 12:31N 19°26' W 095°60'2 0.4
2016-Sep-28 08:31N 19°27' W 096°01'8 1.6
2016-Sep-28 03:31N 19°21' W 096°06'1 1.3
2016-Sep-28 02:30N 19°22' W 096°05'1 1.3
2016-Sep-28 01:31N 19°23' W 096°05'2 1.0
2016-Sep-27 23:30N 19°25' W 096°04'4 1.0
2016-Sep-27 19:33N 19°26' W 096°00'15 3.1
2016-Sep-27 14:33N 19°13' W 096°08'0 0.0
2016-Sep-27 13:30N 19°13' W 096°08'0 0.0
2016-Sep-27 10:33N 19°13' W 096°08'0 0.0
2016-Sep-27 00:30N 19°13' W 096°08'0 0.0
2016-Sep-26 20:33N 19°13' W 096°08'0 0.0
2016-Sep-26 19:33N 19°13' W 096°08'0 0.0
2016-Sep-26 15:33N 19°13' W 096°08'0 0.0
2016-Sep-26 13:33N 19°13' W 096°08'0 0.0
2016-Sep-26 11:33N 19°13' W 096°08'0 0.0
2016-Sep-26 08:33N 19°13' W 096°08'0 0.0
2016-Sep-26 02:33N 19°13' W 096°08'0 0.0
2016-Sep-26 01:33N 19°13' W 096°08'0 0.0
2016-Sep-26 00:33N 19°13' W 096°08'0 0.0
2016-Sep-25 21:33N 19°13' W 096°08'0 0.0
2016-Sep-25 17:27N 19°13' W 096°08'0 0.0
2016-Sep-25 16:33N 19°13' W 096°08'0 0.0
2016-Sep-25 15:33N 19°13' W 096°08'0 0.0
2016-Sep-25 14:33N 19°13' W 096°08'0 0.0
2016-Sep-25 12:33N 19°13' W 096°08'0 0.0
2016-Sep-25 11:33N 19°13' W 096°08'0 0.0
2016-Sep-25 10:33N 19°13' W 096°08'0 0.0
2016-Sep-25 09:33N 19°13' W 096°08'0 0.0
2016-Sep-25 07:33N 19°13' W 096°08'0 0.0
2016-Sep-25 04:33N 19°13' W 096°08'0 0.0
2016-Sep-25 00:33N 19°13' W 096°08'0 0.0
2016-Sep-24 22:33N 19°13' W 096°08'0 0.0
2016-Sep-24 21:33N 19°13' W 096°08'0 0.0
2016-Sep-24 19:33N 19°13' W 096°08'0 0.0
2016-Sep-24 18:33N 19°13' W 096°08'0 0.0
2016-Sep-24 17:33N 19°13' W 096°08'0 0.0
2016-Sep-24 16:33N 19°13' W 096°08'0 0.0
2016-Sep-24 14:33N 19°13' W 096°08'0 0.0
2016-Sep-24 12:33N 19°13' W 096°08'0 0.0
2016-Sep-24 10:30N 19°13' W 096°08'0 0.0
2016-Sep-24 09:33N 19°13' W 096°08'0 0.0
2016-Sep-24 03:33N 19°13' W 096°08'0 0.0
2016-Sep-24 02:33N 19°13' W 096°08'0 0.0
2016-Sep-24 01:33N 19°13' W 096°08'0 0.0
2016-Sep-24 00:33N 19°13' W 096°08'0 0.0
2016-Sep-23 19:33N 19°13' W 096°08'0 0.0
2016-Sep-23 17:30N 19°13' W 096°08'0 0.0
2016-Sep-23 16:33N 19°13' W 096°08'0 0.0
2016-Sep-23 15:33N 19°13' W 096°08'0 0.0
2016-Sep-23 13:33N 19°13' W 096°08'0 0.0
2016-Sep-23 09:33N 19°13' W 096°08'0 0.0
2016-Sep-23 06:27N 19°13' W 096°08'0 0.0
2016-Sep-23 04:33N 19°13' W 096°08'0 0.0
2016-Sep-23 03:33N 19°13' W 096°08'0 0.0
2016-Sep-23 02:33N 19°13' W 096°08'0 0.0
2016-Sep-23 01:33N 19°13' W 096°08'0 0.0
2016-Sep-23 00:30N 19°13' W 096°08'0 0.0
2016-Sep-22 23:33N 19°13' W 096°08'0 0.0
2016-Sep-22 20:33N 19°13' W 096°08'0 0.0
2016-Sep-22 12:33N 19°13' W 096°08'0 0.0
2016-Sep-22 04:33N 19°13' W 096°08'0 0.0
2016-Sep-22 03:33N 19°13' W 096°08'0 0.0
2016-Sep-22 00:33N 19°13' W 096°08'0 0.0
2016-Sep-21 23:33N 19°13' W 096°08'0 0.0
2016-Sep-21 22:33N 19°13' W 096°08'0 0.0
2016-Sep-21 19:33N 19°13' W 096°08'0 0.0
2016-Sep-21 16:33N 19°13' W 096°08'0 0.0
2016-Sep-21 09:33N 19°13' W 096°08'0 0.0
2016-Sep-21 08:33N 19°13' W 096°08'0 0.0
2016-Sep-21 05:30N 19°13' W 096°08'0 0.0
2016-Sep-21 03:33N 19°13' W 096°08'0 0.0
2016-Sep-21 02:33N 19°13' W 096°08'19 2.1
2016-Sep-20 17:33N 19°14' W 095°49'  

Dump ship's entire track history